Time;durP1;ratioP1;P1;durP2;ratioP2;P2;SDS_P1;SDS_P2;PMS_P1;PMS_P2;Temp;Humidity;BMP_temperature;BMP_pressure;BME280_temperature;BME280_humidity;BME280_pressure;Samples;Min_cycle;Max_cycle;Signal;HPM_P1;HPM_P2
2024/01/13 00:02:13;;;;;;;17.90;8.82;;;;;;;0.38;100.00;102864.53;5037274;28;20084;-74
2024/01/13 00:04:39;;;;;;;16.40;7.20;;;;;;;0.40;100.00;102862.69;5020793;28;20040;-74
2024/01/13 00:07:05;;;;;;;15.77;8.07;;;;;;;0.42;100.00;102859.97;5020811;28;20082;-74
2024/01/13 00:09:30;;;;;;;15.52;7.55;;;;;;;0.40;100.00;102852.13;5020325;28;20035;-74
2024/01/13 00:11:56;;;;;;;14.95;8.05;;;;;;;0.40;100.00;102857.41;5036710;28;20056;-74
2024/01/13 00:14:21;;;;;;;14.70;7.63;;;;;;;0.41;100.00;102858.25;5020521;28;20118;-74
2024/01/13 00:16:49;;;;;;;13.85;6.38;;;;;;;0.41;100.00;102845.03;5020345;28;20036;-74
2024/01/13 00:19:14;;;;;;;18.85;8.30;;;;;;;0.40;100.00;102841.53;5053405;28;20056;-75
2024/01/13 00:21:40;;;;;;;17.27;8.98;;;;;;;0.40;100.00;102836.25;5020168;28;20530;-74
2024/01/13 00:24:06;;;;;;;14.35;7.90;;;;;;;0.40;100.00;102830.09;5036458;28;20037;-74
2024/01/13 00:26:32;;;;;;;18.98;9.40;;;;;;;0.41;100.00;102832.66;5020574;28;20029;-74
2024/01/13 00:28:57;;;;;;;14.48;8.40;;;;;;;0.40;100.00;102823.00;5020278;28;20055;-74
2024/01/13 00:31:23;;;;;;;16.00;8.93;;;;;;;0.38;100.00;102829.28;5053198;28;20032;-74
2024/01/13 00:33:49;;;;;;;18.35;8.77;;;;;;;0.38;100.00;102816.03;5020406;28;20466;-74
2024/01/13 00:36:14;;;;;;;17.17;8.40;;;;;;;0.36;100.00;102800.22;5036446;28;20025;-74
2024/01/13 00:38:40;;;;;;;15.10;7.90;;;;;;;0.35;100.00;102806.44;5036403;28;20051;-74
2024/01/13 00:41:06;;;;;;;17.27;7.10;;;;;;;0.35;100.00;102801.16;5020194;28;20033;-75
2024/01/13 00:43:32;;;;;;;15.05;7.22;;;;;;;0.37;100.00;102795.78;5036514;28;20392;-74
2024/01/13 00:45:57;;;;;;;16.65;8.27;;;;;;;0.38;100.00;102801.03;5020099;28;20065;-74
2024/01/13 00:48:23;;;;;;;18.58;8.50;;;;;;;0.38;100.00;102789.59;5036483;28;20509;-74
2024/01/13 00:50:48;;;;;;;12.88;6.30;;;;;;;0.42;100.00;102792.06;5036390;28;20043;-75
2024/01/13 00:53:14;;;;;;;15.77;6.72;;;;;;;0.40;100.00;102793.91;5036437;28;20025;-74
2024/01/13 00:55:40;;;;;;;15.60;6.78;;;;;;;0.39;100.00;102789.50;5019795;28;20029;-75
2024/01/13 00:58:05;;;;;;;15.15;7.07;;;;;;;0.36;100.00;102786.97;5019898;28;20072;-74
2024/01/13 01:00:31;;;;;;;15.48;7.20;;;;;;;0.36;100.00;102784.34;5019957;28;20037;-74
2024/01/13 01:02:57;;;;;;;15.43;8.35;;;;;;;0.40;100.00;102777.16;5036995;28;20452;-74
2024/01/13 01:05:22;;;;;;;16.35;8.35;;;;;;;0.37;100.00;102766.66;5019535;28;20035;-75
2024/01/13 01:07:48;;;;;;;17.70;8.15;;;;;;;0.38;100.00;102774.56;5035730;28;20098;-74
2024/01/13 01:10:14;;;;;;;17.33;8.57;;;;;;;0.38;100.00;102769.25;5035624;28;20045;-75
2024/01/13 01:12:39;;;;;;;16.15;8.57;;;;;;;0.42;100.00;102759.41;5019758;28;20048;-74
2024/01/13 01:15:05;;;;;;;18.83;9.45;;;;;;;0.43;100.00;102761.16;5019555;28;20025;-74
2024/01/13 01:17:31;;;;;;;8.32;4.68;;;;;;;0.40;100.00;102758.63;5019685;28;20066;-74
2024/01/13 01:19:57;;;;;;;14.15;8.00;;;;;;;0.41;100.00;102753.25;5036054;28;20033;-74
2024/01/13 01:22:22;;;;;;;12.93;6.03;;;;;;;0.41;100.00;102742.69;5035945;28;20037;-74
2024/01/13 01:24:48;;;;;;;15.32;6.80;;;;;;;0.42;100.00;102739.13;5019590;28;20051;-74
2024/01/13 01:27:14;;;;;;;17.52;8.02;;;;;;;0.43;100.00;102734.69;5019482;28;20494;-74
2024/01/13 01:29:39;;;;;;;14.48;7.15;;;;;;;0.43;100.00;102730.25;5018849;28;20045;-74
2024/01/13 01:32:05;;;;;;;20.05;8.45;;;;;;;0.44;100.00;102731.09;5035519;28;20036;-74
2024/01/13 01:34:31;;;;;;;19.77;9.38;;;;;;;0.45;100.00;102724.91;5020138;28;20037;-74
2024/01/13 01:36:57;;;;;;;18.55;8.38;;;;;;;0.45;100.00;102719.63;5035385;28;20395;-74
2024/01/13 01:39:22;;;;;;;14.38;7.40;;;;;;;0.43;100.00;102718.81;5035372;28;20052;-74
2024/01/13 01:41:48;;;;;;;15.50;8.18;;;;;;;0.38;100.00;102720.78;5036245;28;20040;-74
2024/01/13 01:44:13;;;;;;;18.75;9.02;;;;;;;0.36;100.00;102712.03;5019227;28;20076;-74
2024/01/13 01:46:40;;;;;;;17.30;7.90;;;;;;;0.35;100.00;102705.88;5035326;28;20391;-74
2024/01/13 01:49:06;;;;;;;17.70;8.15;;;;;;;0.37;100.00;102705.81;5019446;28;20406;-74
2024/01/13 01:51:32;;;;;;;16.85;8.05;;;;;;;0.36;100.00;102696.16;5019803;28;20041;-74
2024/01/13 01:53:58;;;;;;;19.13;9.60;;;;;;;0.34;100.00;102701.50;5019905;28;20042;-74
2024/01/13 01:56:27;;;;;;;21.80;10.73;;;;;;;0.35;100.00;102699.75;5019036;28;20044;-74
2024/01/13 01:58:55;;;;;;;22.30;10.30;;;;;;;0.31;100.00;102690.19;5052118;28;20033;-74
2024/01/13 02:01:22;;;;;;;20.20;9.38;;;;;;;0.31;100.00;102688.38;5035603;28;20092;-74
2024/01/13 02:03:48;;;;;;;23.00;9.65;;;;;;;0.35;100.00;102684.72;5035215;28;20025;-74
2024/01/13 02:06:14;;;;;;;20.10;10.45;;;;;;;0.39;100.00;102685.44;5035627;28;20029;-75
2024/01/13 02:08:41;;;;;;;21.55;10.50;;;;;;;0.42;100.00;102682.66;5052011;28;20020;-74
2024/01/13 02:11:07;;;;;;;20.50;9.88;;;;;;;0.40;100.00;102676.59;5019151;28;20036;-75
2024/01/13 02:13:33;;;;;;;19.38;9.00;;;;;;;0.38;100.00;102675.78;5035402;28;20025;-74
2024/01/13 02:15:59;;;;;;;18.33;8.43;;;;;;;0.38;100.00;102673.16;5018888;28;20082;-74
2024/01/13 02:18:24;;;;;;;16.95;8.63;;;;;;;0.42;100.00;102670.31;5018831;28;20036;-75
2024/01/13 02:20:50;;;;;;;17.50;9.35;;;;;;;0.40;100.00;102666.88;5035214;28;20491;-74
2024/01/13 02:23:16;;;;;;;20.48;10.38;;;;;;;0.46;100.00;102675.47;5019511;28;20037;-74
2024/01/13 02:25:41;;;;;;;24.10;12.35;;;;;;;0.43;100.00;102669.38;5019036;28;20041;-74
2024/01/13 02:28:07;;;;;;;23.23;10.20;;;;;;;0.42;100.00;102657.09;5019036;28;20036;-74
2024/01/13 02:30:33;;;;;;;21.23;9.63;;;;;;;0.43;100.00;102650.84;5018942;28;20033;-74
2024/01/13 02:32:58;;;;;;;14.48;7.20;;;;;;;0.43;100.00;102650.84;5019020;28;20121;-74
2024/01/13 02:35:24;;;;;;;18.40;8.90;;;;;;;0.47;100.00;102648.06;5022407;28;20044;-74
2024/01/13 02:37:49;;;;;;;19.55;10.20;;;;;;;0.49;100.00;102654.16;5022472;28;20139;-74
2024/01/13 02:40:15;;;;;;;17.17;8.63;;;;;;;0.48;100.00;102639.19;5038820;28;20044;-75
2024/01/13 02:42:41;;;;;;;20.33;10.15;;;;;;;0.48;100.00;102641.84;5022351;28;20049;-74
2024/01/13 02:45:07;;;;;;;18.42;9.40;;;;;;;0.47;100.00;102635.69;5022902;28;20045;-74
2024/01/13 02:47:44;;;;;;;19.75;9.55;;;;;;;0.52;100.00;102639.00;5038720;28;20037;-74
2024/01/13 02:50:10;;;;;;;18.40;8.75;;;;;;;0.53;100.00;102638.09;5022144;28;20550;-75
2024/01/13 02:52:36;;;;;;;17.65;8.15;;;;;;;0.54;100.00;102639.81;5022159;28;20175;-75
2024/01/13 02:55:02;;;;;;;15.93;8.10;;;;;;;0.57;100.00;102641.47;5022083;28;20116;-75
2024/01/13 02:57:28;;;;;;;18.08;9.10;;;;;;;0.57;100.00;102644.13;5022221;28;20036;-74
2024/01/13 02:59:54;;;;;;;18.23;8.93;;;;;;;0.57;100.00;102646.75;5022212;28;20048;-74
2024/01/13 03:02:19;;;;;;;18.77;8.75;;;;;;;0.57;100.00;102639.69;5021991;28;20456;-75
2024/01/13 03:04:45;;;;;;;16.80;8.13;;;;;;;0.59;100.00;102636.97;5021972;28;20040;-74
2024/01/13 03:07:10;;;;;;;19.45;9.65;;;;;;;0.61;100.00;102637.78;5021851;28;20132;-75
2024/01/13 03:09:36;;;;;;;16.25;8.00;;;;;;;0.63;100.00;102638.56;5021942;28;20036;-75
2024/01/13 03:12:02;;;;;;;16.83;8.40;;;;;;;0.61;100.00;102636.00;5021802;28;20095;-75
2024/01/13 03:14:29;;;;;;;11.18;5.28;;;;;;;0.62;100.00;102634.19;5038205;28;20037;-75
2024/01/13 03:16:55;;;;;;;21.67;9.45;;;;;;;0.63;100.00;102625.31;5021286;28;20044;-75
2024/01/13 03:19:20;;;;;;;18.02;8.65;;;;;;;0.64;100.00;102627.91;5037844;28;20040;-75
2024/01/13 03:21:46;;;;;;;22.27;11.35;;;;;;;0.67;100.00;102629.56;5021678;28;20067;-75
2024/01/13 03:24:12;;;;;;;19.35;9.07;;;;;;;0.64;100.00;102621.75;5021631;28;20120;-75
2024/01/13 03:26:38;;;;;;;20.30;9.50;;;;;;;0.64;100.00;102621.75;5021619;28;20041;-75
2024/01/13 03:29:03;;;;;;;21.00;9.88;;;;;;;0.64;100.00;102621.75;5021542;28;20033;-75
2024/01/13 03:31:29;;;;;;;13.93;7.78;;;;;;;0.65;100.00;102619.03;5037954;28;20428;-75
2024/01/13 03:33:55;;;;;;;18.60;9.20;;;;;;;0.67;100.00;102621.63;5021595;28;20081;-75
2024/01/13 03:36:20;;;;;;;18.30;9.55;;;;;;;0.69;100.00;102619.78;5037351;28;20033;-75
2024/01/13 03:38:46;;;;;;;19.15;9.43;;;;;;;0.70;100.00;102613.53;5021281;28;20467;-75
2024/01/13 03:41:14;;;;;;;18.30;8.23;;;;;;;0.72;100.00;102614.34;5037647;28;20036;-75
2024/01/13 03:43:39;;;;;;;20.13;8.75;;;;;;;0.72;100.00;102617.00;5055297;28;20056;-75
2024/01/13 03:46:05;;;;;;;17.17;8.07;;;;;;;0.74;100.00;102611.63;5036134;28;20472;-75
2024/01/13 03:48:31;;;;;;;18.75;9.10;;;;;;;0.75;100.00;102611.56;5037399;28;20029;-75
2024/01/13 03:50:57;;;;;;;13.02;7.47;;;;;;;0.77;100.00;102607.06;5037583;28;20425;-75
2024/01/13 03:53:22;;;;;;;18.67;9.10;;;;;;;0.78;100.00;102605.28;5020805;28;20040;-75
2024/01/13 03:55:48;;;;;;;17.63;9.15;;;;;;;0.80;100.00;102606.06;5020918;28;20063;-75
2024/01/13 03:58:14;;;;;;;16.42;8.70;;;;;;;0.82;100.00;102606.84;5037386;28;20387;-75
2024/01/13 04:00:40;;;;;;;17.00;7.97;;;;;;;0.82;100.00;102609.50;5053807;28;20025;-75
2024/01/13 04:03:06;;;;;;;16.63;7.78;;;;;;;0.83;100.00;102604.13;5037189;28;20025;-75
2024/01/13 04:05:32;;;;;;;15.05;7.07;;;;;;;0.85;100.00;102604.94;5020739;28;20481;-75
2024/01/13 04:07:58;;;;;;;18.33;7.60;;;;;;;0.86;100.00;102597.84;5020828;28;20132;-75
2024/01/13 04:10:23;;;;;;;19.73;8.10;;;;;;;0.85;100.00;102599.66;5020800;28;20123;-75
2024/01/13 04:12:49;;;;;;;15.25;6.95;;;;;;;0.86;100.00;102596.06;5020741;28;20041;-75
2024/01/13 04:15:14;;;;;;;17.80;8.82;;;;;;;0.87;100.00;102586.31;5036976;28;20059;-75
2024/01/13 04:17:40;;;;;;;15.63;7.32;;;;;;;0.88;100.00;102588.91;5037228;28;20108;-75
2024/01/13 04:20:06;;;;;;;15.98;7.15;;;;;;;0.87;100.00;102584.56;5021108;28;20460;-75
2024/01/13 04:22:32;;;;;;;15.48;6.97;;;;;;;0.88;100.00;102577.47;5021043;28;20430;-75
2024/01/13 04:24:58;;;;;;;15.27;7.13;;;;;;;0.89;100.00;102571.22;5020426;28;20534;-75
2024/01/13 04:27:24;;;;;;;16.13;7.85;;;;;;;0.90;100.00;102574.72;5020513;28;20036;-75
2024/01/13 04:29:49;;;;;;;17.77;8.10;;;;;;;0.88;100.00;102564.22;5020378;28;20467;-75
2024/01/13 04:32:15;;;;;;;16.60;7.63;;;;;;;0.87;100.00;102566.00;5020183;28;20147;-75
2024/01/13 04:34:40;;;;;;;17.50;8.10;;;;;;;0.89;100.00;102563.28;5020271;28;20040;-75
2024/01/13 04:37:06;;;;;;;15.88;7.10;;;;;;;0.89;100.00;102552.69;5020002;28;20036;-75
2024/01/13 04:39:32;;;;;;;13.15;6.93;;;;;;;0.91;100.00;102544.69;5052687;28;20090;-75
2024/01/13 04:41:58;;;;;;;15.75;7.40;;;;;;;0.90;100.00;102545.59;5036055;28;20035;-75
2024/01/13 04:44:23;;;;;;;16.25;7.50;;;;;;;0.90;100.00;102540.31;5020156;28;20093;-75
2024/01/13 04:46:49;;;;;;;13.45;6.28;;;;;;;0.90;100.00;102537.66;5020096;28;20047;-75
2024/01/13 04:49:15;;;;;;;13.65;7.00;;;;;;;0.91;100.00;102540.25;5036390;28;20045;-75
2024/01/13 04:51:40;;;;;;;12.60;6.55;;;;;;;0.90;100.00;102538.53;5020024;28;20032;-75
2024/01/13 04:54:06;;;;;;;15.88;7.75;;;;;;;0.91;100.00;102539.38;5020023;28;20041;-75
2024/01/13 04:56:32;;;;;;;17.00;7.35;;;;;;;0.94;100.00;102541.88;5019138;28;20078;-75
2024/01/13 04:58:57;;;;;;;13.57;6.38;;;;;;;0.92;100.00;102536.66;5019818;28;20384;-75
2024/01/13 05:01:23;;;;;;;13.95;6.45;;;;;;;0.92;100.00;102531.34;5019885;28;20060;-75
2024/01/13 05:03:49;;;;;;;13.65;6.38;;;;;;;0.94;100.00;102545.41;5019735;28;20052;-75
2024/01/13 05:06:15;;;;;;;16.23;6.90;;;;;;;0.94;100.00;102528.66;5019690;28;20033;-75
2024/01/13 05:08:42;;;;;;;12.90;6.22;;;;;;;0.95;100.00;102531.22;5003547;28;20045;-75
2024/01/13 05:11:08;;;;;;;14.43;7.50;;;;;;;0.96;100.00;102524.16;5036152;28;20085;-75
2024/01/13 05:13:34;;;;;;;14.35;6.80;;;;;;;0.97;100.00;102518.75;5019706;28;20423;-75
2024/01/13 05:15:59;;;;;;;15.57;6.93;;;;;;;0.97;100.00;102529.34;5019730;28;20029;-75
2024/01/13 05:18:26;;;;;;;15.98;7.15;;;;;;;0.96;100.00;102527.66;5019716;28;20434;-75
2024/01/13 05:20:52;;;;;;;16.73;7.07;;;;;;;0.96;100.00;102524.16;5019724;28;20045;-75
2024/01/13 05:23:18;;;;;;;13.55;6.82;;;;;;;0.90;100.00;102516.47;5019356;28;20085;-75
2024/01/13 05:25:43;;;;;;;14.38;7.30;;;;;;;0.82;100.00;102503.56;5036002;28;20360;-75
2024/01/13 05:28:09;;;;;;;16.80;7.93;;;;;;;0.74;100.00;102509.25;5019626;28;20045;-75
2024/01/13 05:30:35;;;;;;;15.25;7.53;;;;;;;0.72;100.00;102502.28;5019531;28;20043;-75
2024/01/13 05:33:04;;;;;;;13.55;7.00;;;;;;;0.68;100.00;102504.19;5019694;28;20150;-75
2024/01/13 05:35:29;;;;;;;14.43;6.05;;;;;;;0.64;100.00;102505.28;5019392;28;20040;-75
2024/01/13 05:37:55;;;;;;;15.65;6.95;;;;;;;0.56;100.00;102500.31;5019478;28;20039;-75
2024/01/13 05:40:21;;;;;;;12.63;6.50;;;;;;;0.50;100.00;102497.06;5019194;28;20388;-74
2024/01/13 05:42:46;;;;;;;14.57;6.82;;;;;;;0.43;100.00;102505.28;5019384;28;20033;-74
2024/01/13 05:45:12;;;;;;;15.10;7.45;;;;;;;0.43;100.00;102502.66;5019466;28;20044;-74
2024/01/13 05:47:38;;;;;;;14.90;6.85;;;;;;;0.42;100.00;102486.81;5019415;28;20098;-75
2024/01/13 05:50:04;;;;;;;16.02;6.55;;;;;;;0.46;100.00;102491.06;5019337;28;20452;-75
2024/01/13 05:52:30;;;;;;;15.00;6.30;;;;;;;0.49;100.00;102490.94;5036115;28;20108;-75
2024/01/13 05:54:56;;;;;;;15.57;6.78;;;;;;;0.51;100.00;102493.53;5019091;28;20132;-74
2024/01/13 05:57:22;;;;;;;16.00;6.85;;;;;;;0.51;100.00;102489.09;5035453;28;20060;-75
2024/01/13 05:59:48;;;;;;;16.73;6.32;;;;;;;0.52;100.00;102492.59;5019257;28;20076;-74
2024/01/13 06:02:14;;;;;;;14.60;6.32;;;;;;;0.54;100.00;102498.69;5019304;28;20118;-75
2024/01/13 06:04:40;;;;;;;17.15;6.63;;;;;;;0.54;100.00;102488.94;5051747;28;20028;-74
2024/01/13 06:07:06;;;;;;;14.40;6.22;;;;;;;0.56;100.00;102491.53;5019104;28;20418;-75
2024/01/13 06:09:32;;;;;;;14.15;6.18;;;;;;;0.57;100.00;102485.28;5038306;28;20068;-74
2024/01/13 06:11:58;;;;;;;11.02;5.93;;;;;;;0.61;100.00;102473.66;5055520;28;20028;-74
2024/01/13 06:14:24;;;;;;;16.00;6.65;;;;;;;0.62;100.00;102470.06;5022900;28;20045;-74
2024/01/13 06:16:50;;;;;;;12.77;7.15;;;;;;;0.62;100.00;102470.91;5039778;28;20110;-75
2024/01/13 06:19:15;;;;;;;16.17;6.82;;;;;;;0.63;100.00;102474.44;5055690;28;20479;-74
2024/01/13 06:21:45;;;;;;;12.45;6.70;;;;;;;0.62;100.00;102472.72;5039224;28;20476;-74
2024/01/13 06:24:14;;;;;;;11.98;5.65;;;;;;;0.54;100.00;102446.59;5039541;28;20476;-74
2024/01/13 06:26:40;;;;;;;15.13;6.57;;;;;;;0.63;100.00;102455.91;5006525;28;20557;-74
2024/01/13 06:29:07;;;;;;;18.52;7.22;;;;;;;0.60;100.00;102448.94;5055570;28;20060;-74
2024/01/13 06:31:32;;;;;;;15.95;6.95;;;;;;;0.60;100.00;102448.09;5039260;28;20033;-75
2024/01/13 06:34:05;;;;;;;15.02;6.85;;;;;;;0.61;100.00;102447.19;5040116;28;20037;-74
2024/01/13 06:36:31;;;;;;;16.77;7.28;;;;;;;0.63;100.00;102443.50;5038941;28;20029;-74
2024/01/13 06:38:57;;;;;;;11.07;5.85;;;;;;;0.63;100.00;102435.56;5022169;28;20025;-75
2024/01/13 06:41:23;;;;;;;14.02;6.05;;;;;;;0.64;100.00;102436.44;5022417;28;20064;-75
2024/01/13 06:43:49;;;;;;;12.32;6.25;;;;;;;0.64;100.00;102437.31;5022426;28;20106;-75
2024/01/13 06:46:15;;;;;;;16.30;7.88;;;;;;;0.64;100.00;102433.81;5038770;28;20029;-74
2024/01/13 06:48:40;;;;;;;14.38;6.90;;;;;;;0.65;100.00;102438.16;5038577;28;20353;-75
2024/01/13 06:51:06;;;;;;;14.02;6.28;;;;;;;0.65;100.00;102430.22;5022200;28;20567;-74
2024/01/13 06:53:31;;;;;;;13.35;5.93;;;;;;;0.66;100.00;102431.91;5022154;28;20025;-75
2024/01/13 06:55:57;;;;;;;14.98;6.32;;;;;;;0.65;100.00;102422.28;5022350;28;20069;-74
2024/01/13 06:58:23;;;;;;;14.23;6.68;;;;;;;0.68;100.00;102413.34;5022101;28;20422;-75
2024/01/13 07:00:48;;;;;;;12.05;5.50;;;;;;;0.65;100.00;102416.97;5021992;28;20041;-75
2024/01/13 07:03:14;;;;;;;15.02;7.05;;;;;;;0.65;100.00;102409.88;5054910;28;20040;-74
2024/01/13 07:05:40;;;;;;;15.65;6.63;;;;;;;0.65;100.00;102409.88;5022045;28;20036;-74
2024/01/13 07:08:06;;;;;;;14.55;6.93;;;;;;;0.62;100.00;102404.75;5021949;28;20041;-74
2024/01/13 07:10:33;;;;;;;16.52;6.50;;;;;;;0.61;100.00;102404.84;5038779;28;20455;-75
2024/01/13 07:12:59;;;;;;;15.85;7.68;;;;;;;0.59;100.00;102396.94;5038380;28;20040;-75
2024/01/13 07:15:25;;;;;;;15.18;6.35;;;;;;;0.60;100.00;102396.00;5038133;28;20029;-74
2024/01/13 07:17:52;;;;;;;15.23;6.57;;;;;;;0.61;100.00;102384.50;5021717;28;20041;-74
2024/01/13 07:20:18;;;;;;;15.27;6.32;;;;;;;0.59;100.00;102389.00;5037545;28;20041;-74
2024/01/13 07:22:43;;;;;;;13.18;5.88;;;;;;;0.60;100.00;102387.22;5020720;28;20044;-75
2024/01/13 07:25:09;;;;;;;15.57;6.40;;;;;;;0.62;100.00;102390.66;5020818;28;20052;-74
2024/01/13 07:27:35;;;;;;;15.20;6.88;;;;;;;0.61;100.00;102384.50;5021552;28;20047;-74
2024/01/13 07:30:01;;;;;;;12.43;5.18;;;;;;;0.62;100.00;102385.38;5021417;28;20045;-74
2024/01/13 07:32:27;;;;;;;11.82;6.03;;;;;;;0.62;100.00;102374.78;5021047;28;20124;-74
2024/01/13 07:34:53;;;;;;;14.23;6.32;;;;;;;0.62;100.00;102378.28;5021801;28;20112;-74
2024/01/13 07:37:18;;;;;;;14.52;6.07;;;;;;;0.62;100.00;102380.91;5037582;28;20559;-75
2024/01/13 07:39:46;;;;;;;14.75;6.80;;;;;;;0.63;100.00;102376.47;5021325;28;20426;-74
2024/01/13 07:42:12;;;;;;;14.07;6.50;;;;;;;0.63;100.00;102371.19;5021199;28;20038;-75
2024/01/13 07:44:38;;;;;;;16.38;6.90;;;;;;;0.62;100.00;102359.75;5037557;28;20083;-74
2024/01/13 07:47:06;;;;;;;15.63;6.75;;;;;;;0.64;100.00;102372.91;5037495;28;20041;-74
2024/01/13 07:49:32;;;;;;;10.65;5.75;;;;;;;0.64;100.00;102354.38;5021073;28;20041;-74
2024/01/13 07:51:58;;;;;;;14.45;7.22;;;;;;;0.65;100.00;102356.09;5021039;28;20039;-74
2024/01/13 07:54:23;;;;;;;13.95;6.32;;;;;;;0.65;100.00;102358.75;5037402;28;20047;-75
2024/01/13 07:56:49;;;;;;;14.25;5.70;;;;;;;0.66;100.00;102363.09;5037255;28;20033;-74
2024/01/13 07:59:18;;;;;;;13.60;6.97;;;;;;;0.68;100.00;102357.75;5020927;28;20036;-74
2024/01/13 08:01:44;;;;;;;13.30;5.50;;;;;;;0.65;100.00;102362.25;5037609;28;20492;-74
2024/01/13 08:04:11;;;;;;;12.07;5.85;;;;;;;0.64;100.00;102354.38;5020758;28;20316;-75
2024/01/13 08:06:36;;;;;;;11.50;5.22;;;;;;;0.65;100.00;102348.16;5021444;28;20065;-74
2024/01/13 08:09:06;;;;;;;15.65;6.57;;;;;;;0.60;100.00;102336.91;5037179;28;20423;-74
2024/01/13 08:11:32;;;;;;;11.98;6.18;;;;;;;0.67;100.00;102338.34;5053624;28;20531;-75
2024/01/13 08:13:58;;;;;;;13.75;6.55;;;;;;;0.69;100.00;102341.78;5020580;28;20199;-74
2024/01/13 08:16:24;;;;;;;11.70;6.18;;;;;;;0.67;100.00;102337.50;5036788;28;20029;-74
2024/01/13 08:18:49;;;;;;;13.05;5.53;;;;;;;0.65;100.00;102337.56;5020590;28;20132;-74
2024/01/13 08:21:15;;;;;;;12.48;6.30;;;;;;;0.64;100.00;102335.84;5036938;28;20124;-75
2024/01/13 08:23:41;;;;;;;14.27;6.47;;;;;;;0.62;100.00;102327.13;5004179;28;20044;-74
2024/01/13 08:26:07;;;;;;;17.58;8.10;;;;;;;0.61;100.00;102326.28;5036840;28;20074;-74
2024/01/13 08:28:33;;;;;;;11.82;5.97;;;;;;;0.54;100.00;102322.19;5036845;28;20040;-74
2024/01/13 08:30:59;;;;;;;12.90;5.72;;;;;;;0.63;100.00;102336.78;5019939;28;20094;-74
2024/01/13 08:33:25;;;;;;;14.20;7.38;;;;;;;0.64;100.00;102346.44;5036603;28;20440;-74
2024/01/13 08:35:50;;;;;;;12.68;6.32;;;;;;;0.65;100.00;102334.91;5021039;28;20115;-74
2024/01/13 08:38:16;;;;;;;14.30;6.53;;;;;;;0.67;100.00;102338.34;5020258;28;20456;-75
2024/01/13 08:40:45;;;;;;;14.52;6.43;;;;;;;0.69;100.00;102328.56;5053021;28;20025;-75
2024/01/13 08:43:10;;;;;;;11.68;5.75;;;;;;;0.72;100.00;102335.50;5036214;28;20033;-74
2024/01/13 08:45:36;;;;;;;13.50;5.82;;;;;;;0.71;100.00;102325.81;5036434;28;20037;-75
2024/01/13 08:48:02;;;;;;;14.75;7.32;;;;;;;0.75;100.00;102324.75;5019956;28;20479;-75
2024/01/13 08:50:28;;;;;;;11.15;6.22;;;;;;;0.77;100.00;102321.09;5019918;28;20035;-74
2024/01/13 08:52:56;;;;;;;20.33;7.35;;;;;;;0.78;100.00;102330.75;5019922;28;20040;-74
2024/01/13 08:55:22;;;;;;;13.65;6.47;;;;;;;0.80;100.00;102328.03;5036646;28;20029;-75
2024/01/13 08:57:48;;;;;;;13.38;6.47;;;;;;;0.82;100.00;102324.38;5019858;28;20037;-75
2024/01/13 09:00:14;;;;;;;14.90;6.32;;;;;;;0.84;100.00;102326.94;5019940;28;20490;-75
2024/01/13 09:02:40;;;;;;;14.70;7.05;;;;;;;0.86;100.00;102325.09;5020428;28;20120;-75
2024/01/13 09:05:07;;;;;;;13.10;5.88;;;;;;;0.87;100.00;102316.19;5019545;28;20455;-75
2024/01/13 09:07:34;;;;;;;13.20;5.95;;;;;;;0.90;100.00;102325.78;5020395;28;20033;-75
2024/01/13 09:09:59;;;;;;;14.57;6.57;;;;;;;0.94;100.00;102322.06;5019679;28;20056;-75
2024/01/13 09:12:25;;;;;;;14.63;7.47;;;;;;;0.98;100.00;102313.03;5019463;28;20060;-75
2024/01/13 09:14:51;;;;;;;15.18;6.80;;;;;;;1.03;100.00;102322.47;5019608;28;20033;-75
2024/01/13 09:17:17;;;;;;;14.30;6.95;;;;;;;1.10;100.00;102317.72;5019361;28;20036;-75
2024/01/13 09:19:43;;;;;;;15.07;6.88;;;;;;;1.15;100.00;102323.66;5019432;28;20037;-75
2024/01/13 09:22:08;;;;;;;15.18;7.18;;;;;;;1.21;100.00;102319.84;5035657;28;20040;-75
2024/01/13 09:24:34;;;;;;;15.07;7.05;;;;;;;1.25;100.00;102319.63;5019526;28;20033;-75
2024/01/13 09:27:00;;;;;;;20.52;9.50;;;;;;;1.31;100.00;102324.59;5018758;28;20033;-75
2024/01/13 09:29:26;;;;;;;18.13;7.78;;;;;;;1.35;100.00;102329.72;5035805;28;20033;-76
2024/01/13 09:31:52;;;;;;;16.88;7.57;;;;;;;1.38;100.00;102329.59;5019366;28;20098;-76
2024/01/13 09:34:18;;;;;;;25.63;12.55;;;;;;;1.38;100.00;102319.84;5035941;28;20072;-76
2024/01/13 09:36:44;;;;;;;17.35;9.73;;;;;;;1.42;100.00;102326.69;5019118;28;20033;-76
2024/01/13 09:39:11;;;;;;;28.13;15.10;;;;;;;1.47;100.00;102326.47;5035842;28;20110;-76
2024/01/13 09:41:38;;;;;;;17.48;9.63;;;;;;;1.49;100.00;102328.09;5035897;28;20096;-76
2024/01/13 09:44:08;;;;;;;15.70;8.40;;;;;;;1.54;100.00;102319.94;5037356;28;20029;-76
2024/01/13 09:46:35;;;;;;;14.90;7.68;;;;;;;1.55;100.00;102324.28;5057057;28;20033;-76
2024/01/13 09:49:01;;;;;;;14.60;7.53;;;;;;;1.57;100.00;102327.72;5023383;28;20037;-76
2024/01/13 09:51:28;;;;;;;15.60;8.43;;;;;;;1.62;100.00;102330.13;5023279;28;20192;-76
2024/01/13 09:54:04;;;;;;;17.23;8.27;;;;;;;1.65;100.00;102329.97;5006880;28;20140;-76
2024/01/13 09:56:34;;;;;;;14.88;7.47;;;;;;;1.70;100.00;102333.25;5056101;28;20036;-76
2024/01/13 09:59:00;;;;;;;18.10;8.38;;;;;;;1.74;100.00;102335.63;5023024;28;20033;-76
2024/01/13 10:01:27;;;;;;;18.40;8.90;;;;;;;1.83;100.00;102320.22;5022656;28;20120;-76
2024/01/13 10:03:53;;;;;;;14.98;6.88;;;;;;;1.89;100.00;102317.22;5022722;28;20044;-76
2024/01/13 10:06:18;;;;;;;14.73;7.72;;;;;;;1.93;100.00;102334.69;5022879;28;20104;-76
2024/01/13 10:08:44;;;;;;;14.18;6.80;;;;;;;1.96;100.00;102321.28;5022702;28;20543;-76
2024/01/13 10:11:10;;;;;;;15.82;9.38;;;;;;;2.00;100.00;102324.59;5022915;28;20051;-76
2024/01/13 10:13:36;;;;;;;19.60;9.35;;;;;;;1.97;100.00;102325.63;5022950;28;20048;-76
2024/01/13 10:16:02;;;;;;;16.55;7.82;;;;;;;2.03;100.00;102327.09;5055332;28;20035;-76
2024/01/13 10:18:31;;;;;;;16.45;7.50;;;;;;;2.05;100.00;102327.88;5022773;28;20123;-76
2024/01/13 10:20:57;;;;;;;16.65;8.25;;;;;;;2.11;100.00;102324.88;5038447;28;20032;-77
2024/01/13 10:23:22;;;;;;;16.50;8.50;;;;;;;2.16;100.00;102323.69;5055402;28;20033;-76
2024/01/13 10:25:49;;;;;;;14.23;7.28;;;;;;;2.22;100.00;102314.53;5022751;28;20029;-76
2024/01/13 10:28:15;;;;;;;12.40;6.43;;;;;;;2.20;100.00;102311.13;5039069;28;20048;-76
2024/01/13 10:30:41;;;;;;;11.75;5.70;;;;;;;2.25;100.00;102313.50;5005994;28;20041;-76
2024/01/13 10:33:11;;;;;;;15.75;7.40;;;;;;;2.26;100.00;102321.41;5022170;28;20423;-76
2024/01/13 10:35:37;;;;;;;14.23;7.40;;;;;;;2.31;100.00;102319.34;5022229;28;20032;-76
2024/01/13 10:38:03;;;;;;;17.15;7.57;;;;;;;2.35;100.00;102314.72;5038764;28;20029;-76
2024/01/13 10:40:29;;;;;;;14.63;7.88;;;;;;;2.44;100.00;102321.34;5039882;28;20037;-76
2024/01/13 10:42:55;;;;;;;13.05;6.60;;;;;;;2.48;100.00;102318.41;5038852;28;20380;-76
2024/01/13 10:45:25;;;;;;;14.82;7.00;;;;;;;2.51;100.00;102312.09;5038723;28;20037;-76
2024/01/13 10:48:04;;;;;;;14.20;7.63;;;;;;;2.54;100.00;102303.94;5022342;28;20079;-76
2024/01/13 10:50:30;;;;;;;16.83;8.85;;;;;;;2.62;100.00;102313.22;5022311;28;20037;-76
2024/01/13 10:53:21;;;;;;;15.55;7.40;;;;;;;2.70;100.00;102322.53;5038592;28;20039;-76
2024/01/13 10:55:47;;;;;;;17.15;7.47;;;;;;;2.72;100.00;102313.53;5021403;28;20028;-76
2024/01/13 10:58:14;;;;;;;10.57;5.70;;;;;;;2.70;100.00;102314.56;5005791;28;20083;-76
2024/01/13 11:00:41;;;;;;;14.50;7.47;;;;;;;2.76;100.00;102304.47;5022061;28;20063;-76
2024/01/13 11:03:07;;;;;;;16.33;7.22;;;;;;;2.80;100.00;102302.47;5038344;28;20551;-76
2024/01/13 11:05:34;;;;;;;14.05;7.50;;;;;;;2.84;100.00;102298.72;5021754;28;20112;-77
2024/01/13 11:08:03;;;;;;;16.38;8.55;;;;;;;2.92;100.00;102304.44;5021845;28;20040;-76
2024/01/13 11:10:33;;;;;;;18.33;9.43;;;;;;;3.00;100.00;102298.69;5021970;28;20388;-76
2024/01/13 11:13:10;;;;;;;17.48;8.30;;;;;;;3.08;100.00;102307.91;5038358;28;20044;-76